Latest Weather Observations for South Channel Island

IDV60801

Issued at 10:32 pm EDT Thursday 23 February 2017 (issued every 30 minutes, with the page automatically refreshed every 10 minutes)

About weather observations | Map of weather stations | Latest weather observations for VIC | Other Formats
Station Details ID: 086344 Name: SOUTH CHANNEL ISLAND Lat: -38.31 Lon: 144.80 Height: 9.0 m
Data from the previous 72 hours. | See also: Recent months for locations in Victoria
Date/Time
EDT
Temp
°C
App
Temp
°C
Dew
Point
°C
Rel
Hum
%
Delta-T
°C
Wind Press
QNH
hPa
Press
MSL
hPa
Rain since
9am
mm
Dir  Spd
km/h
Gust
km/h
Spd
kts
Gust
kts
23/10:30pm - - - - - SSW 24 30 13 16 - - -
23/10:00pm - - - - - SSW 30 37 16 20 - - -
23/09:30pm - - - - - SSW 35 43 19 23 - - -
23/09:00pm - - - - - SSW 35 43 19 23 - - -
23/08:30pm - - - - - SSW 41 48 22 26 - - -
23/08:00pm - - - - - S 39 46 21 25 - - -
23/07:30pm - - - - - SSW 39 44 21 24 - - -
23/07:00pm - - - - - SSW 39 46 21 25 - - -
23/06:30pm - - - - - SSW 39 46 21 25 - - -
23/06:00pm - - - - - SSW 37 43 20 23 - - -
23/05:30pm - - - - - SSW 26 32 14 17 - - -
23/05:00pm - - - - - SSW 24 28 13 15 - - -
23/04:30pm - - - - - SSW 20 24 11 13 - - -
23/04:00pm - - - - - SSW 20 24 11 13 - - -
23/03:30pm - - - - - SSW 24 28 13 15 - - -
23/03:00pm - - - - - SSW 19 22 10 12 - - -
23/02:30pm - - - - - SSW 20 24 11 13 - - -
23/02:00pm - - - - - SW 17 19 9 10 - - -
23/01:30pm - - - - - WSW 15 20 8 11 - - -
23/01:00pm - - - - - W 11 13 6 7 - - -
23/12:30pm - - - - - W 17 19 9 10 - - -
23/12:00pm - - - - - W 22 30 12 16 - - -
23/11:30am - - - - - W 32 35 17 19 - - -
23/11:00am - - - - - W 32 37 17 20 - - -
23/10:30am - - - - - WNW 24 30 13 16 - - -
23/10:00am - - - - - WNW 26 32 14 17 - - -
23/09:30am - - - - - NW 28 32 15 17 - - -
23/09:00am - - - - - NW 30 35 16 19 - - -
23/08:30am - - - - - WNW 33 37 18 20 - - -
23/08:00am - - - - - WNW 32 35 17 19 - - -
23/07:30am - - - - - WNW 30 35 16 19 - - -
23/07:00am - - - - - WNW 32 35 17 19 - - -
23/06:30am - - - - - WNW 30 33 16 18 - - -
23/06:00am - - - - - WNW 28 30 15 16 - - -
23/05:30am - - - - - NW 24 30 13 16 - - -
23/05:00am - - - - - NW 22 26 12 14 - - -
23/04:30am - - - - - NW 19 26 10 14 - - -
23/04:00am - - - - - NW 17 20 9 11 - - -
23/03:30am - - - - - NNW 17 19 9 10 - - -
23/03:00am - - - - - N 15 17 8 9 - - -
23/02:30am - - - - - NNW 15 17 8 9 - - -
23/02:00am - - - - - WNW 7 9 4 5 - - -
23/01:30am - - - - - S 9 11 5 6 - - -
23/01:00am - - - - - SSW 17 19 9 10 - - -
23/12:30am - - - - - SSW 22 26 12 14 - - -
23/12:00am - - - - - SSW 32 37 17 20 - - -
 
Date/Time
EDT
Temp
°C
App
Temp
°C
Dew
Point
°C
Rel
Hum
%
Delta-T
°C
Wind Press
QNH
hPa
Press
MSL
hPa
Rain since
9am
mm
Dir  Spd
km/h
Gust
km/h
Spd
kts
Gust
kts
22/11:30pm - - - - - SSW 33 39 18 21 - - -
22/11:00pm - - - - - SSW 39 48 21 26 - - -
22/10:30pm - - - - - SSW 46 56 25 30 - - -
22/10:00pm - - - - - SSW 50 57 27 31 - - -
22/09:30pm - - - - - W 37 74 20 40 - - -
22/09:29pm - - - - - WNW 32 72 17 39 - - -
22/09:28pm - - - - - NNW 30 61 16 33 - - -
22/09:00pm - - - - - NNE 28 30 15 16 - - -
22/08:30pm - - - - - NNE 32 35 17 19 - - -
22/08:00pm - - - - - NNE 32 33 17 18 - - -
22/07:30pm - - - - - N 26 32 14 17 - - -
22/07:00pm - - - - - NNE 32 33 17 18 - - -
22/06:30pm - - - - - NNE 35 41 19 22 - - -
22/06:00pm - - - - - NE 30 33 16 18 - - -
22/05:30pm - - - - - NNE 33 37 18 20 - - -
22/05:00pm - - - - - NNE 35 39 19 21 - - -
22/04:30pm - - - - - NNE 32 33 17 18 - - -
22/04:00pm - - - - - NNE 32 35 17 19 - - -
22/03:30pm - - - - - NNE 35 39 19 21 - - -
22/03:00pm - - - - - NE 39 44 21 24 - - -
22/02:30pm - - - - - NNE 37 43 20 23 - - -
22/02:00pm - - - - - NNE 33 37 18 20 - - -
22/01:30pm - - - - - NE 33 37 18 20 - - -
22/01:00pm - - - - - NNE 35 48 19 26 - - -
22/12:33pm - - - - - NNE 32 50 17 27 - - -
22/12:30pm - - - - - NNE 30 33 16 18 - - -
22/12:00pm - - - - - NE 28 30 15 16 - - -
22/11:30am - - - - - NE 24 30 13 16 - - -
22/11:00am - - - - - NE 26 30 14 16 - - -
22/10:30am - - - - - NNE 26 30 14 16 - - -
22/10:00am - - - - - NE 20 26 11 14 - - -
22/09:30am - - - - - NE 22 26 12 14 - - -
22/09:00am - - - - - NE 22 26 12 14 - - -
22/08:30am - - - - - NE 24 28 13 15 - - -
22/08:00am - - - - - ENE 28 30 15 16 - - -
22/07:30am - - - - - ENE 32 33 17 18 - - -
22/07:00am - - - - - ENE 30 32 16 17 - - -
22/06:30am - - - - - ENE 28 33 15 18 - - -
22/06:00am - - - - - ENE 28 32 15 17 - - -
22/05:30am - - - - - ENE 28 32 15 17 - - -
22/05:00am - - - - - ENE 32 33 17 18 - - -
22/04:30am - - - - - ENE 33 37 18 20 - - -
22/04:00am - - - - - ENE 33 37 18 20 - - -
22/03:30am - - - - - ENE 35 39 19 21 - - -
22/03:00am - - - - - ENE 37 41 20 22 - - -
22/02:30am - - - - - ENE 39 43 21 23 - - -
22/02:00am - - - - - ENE 41 46 22 25 - - -
22/01:30am - - - - - E 43 48 23 26 - - -
22/01:00am - - - - - E 41 46 22 25 - - -
22/12:30am - - - - - E 41 46 22 25 - - -
22/12:00am - - - - - E 41 48 22 26 - - -
 
Date/Time
EDT
Temp
°C
App
Temp
°C
Dew
Point
°C
Rel
Hum
%
Delta-T
°C
Wind Press
QNH
hPa
Press
MSL
hPa
Rain since
9am
mm
Dir  Spd
km/h
Gust
km/h
Spd
kts
Gust
kts
21/11:30pm - - - - - E 37 41 20 22 - - -
21/11:00pm - - - - - E 32 37 17 20 - - -
21/10:30pm - - - - - E 24 32 13 17 - - -
21/10:00pm - - - - - ESE 11 15 6 8 - - -
21/09:30pm - - - - - SE 26 30 14 16 - - -
21/09:00pm - - - - - SE 28 32 15 17 - - -
21/08:30pm - - - - - SE 28 32 15 17 - - -
21/08:00pm - - - - - SE 28 32 15 17 - - -
21/07:30pm - - - - - SE 28 30 15 16 - - -
21/07:00pm - - - - - ESE 15 24 8 13 - - -
21/06:30pm - - - - - SE 11 13 6 7 - - -
21/06:00pm - - - - - SSE 11 13 6 7 - - -
21/05:30pm - - - - - SSE 9 11 5 6 - - -
21/05:00pm - - - - - ESE 9 11 5 6 - - -
21/04:30pm - - - - - ESE 7 9 4 5 - - -
21/04:00pm - - - - - SE 7 9 4 5 - - -
21/03:30pm - - - - - N 6 9 3 5 - - -
21/03:00pm - - - - - NNW 9 9 5 5 - - -
21/02:30pm - - - - - WNW 7 9 4 5 - - -
21/02:00pm - - - - - NNW 6 7 3 4 - - -
21/01:30pm - - - - - SW 6 7 3 4 - - -
21/01:00pm - - - - - SW 7 9 4 5 - - -
21/12:30pm - - - - - WSW 13 15 7 8 - - -
21/12:00pm - - - - - WSW 13 19 7 10 - - -
21/11:30am - - - - - SW 13 19 7 10 - - -
21/11:00am - - - - - WSW 17 20 9 11 - - -
21/10:30am - - - - - WSW 17 24 9 13 - - -
21/10:00am - - - - - WNW 17 19 9 10 - - -
21/09:30am - - - - - WNW 15 17 8 9 - - -
21/09:00am - - - - - W 17 20 9 11 - - -
21/08:30am - - - - - WNW 20 24 11 13 - - -
21/08:00am - - - - - WNW 22 26 12 14 - - -
21/07:30am - - - - - W 22 24 12 13 - - -
21/07:00am - - - - - WNW 26 28 14 15 - - -
21/06:30am - - - - - WNW 26 28 14 15 - - -
21/06:00am - - - - - W 28 30 15 16 - - -
21/05:30am - - - - - WNW 26 28 14 15 - - -
21/05:00am - - - - - W 26 28 14 15 - - -
21/04:30am - - - - - W 26 30 14 16 - - -
21/04:00am - - - - - W 28 32 15 17 - - -
21/03:30am - - - - - WNW 28 32 15 17 - - -
21/03:00am - - - - - W 28 32 15 17 - - -
21/02:30am - - - - - W 28 30 15 16 - - -
21/02:00am - - - - - W 30 33 16 18 - - -
21/01:30am - - - - - W 30 33 16 18 - - -
21/01:00am - - - - - W 32 35 17 19 - - -
21/12:30am - - - - - W 32 35 17 19 - - -
21/12:00am - - - - - W 32 37 17 20 - - -
 
Date/Time
EDT
Temp
°C
App
Temp
°C
Dew
Point
°C
Rel
Hum
%
Delta-T
°C
Wind Press
QNH
hPa
Press
MSL
hPa
Rain since
9am
mm
Dir  Spd
km/h
Gust
km/h
Spd
kts
Gust
kts
20/11:30pm - - - - - WSW 33 41 18 22 - - -
20/11:00pm - - - - - WSW 37 48 20 26 - - -

Other Formats:

Comma delimited format used in spreadsheet applications
http://www.bom.gov.au/fwo/IDV60801/IDV60801.94853.axf

JavaScript Object Notation format (JSON) in row-major order
http://www.bom.gov.au/fwo/IDV60801/IDV60801.94853.json